sensor_id;sensor_type;location;lat;lon;timestamp;temperature;humidity
42097;DHT22;27754;45.414;11.084;2023-04-09T00:02:02;10.80;81.30
42097;DHT22;27754;45.414;11.084;2023-04-09T00:04:29;10.80;81.20
42097;DHT22;27754;45.414;11.084;2023-04-09T00:06:56;10.80;80.10
42097;DHT22;27754;45.414;11.084;2023-04-09T00:09:22;10.80;80.10
42097;DHT22;27754;45.414;11.084;2023-04-09T00:11:49;10.70;80.10
42097;DHT22;27754;45.414;11.084;2023-04-09T00:14:16;10.80;79.60
42097;DHT22;27754;45.414;11.084;2023-04-09T00:16:43;10.70;79.80
42097;DHT22;27754;45.414;11.084;2023-04-09T00:19:10;10.80;79.20
42097;DHT22;27754;45.414;11.084;2023-04-09T00:21:38;10.80;79.30
42097;DHT22;27754;45.414;11.084;2023-04-09T00:24:05;10.90;79.60
42097;DHT22;27754;45.414;11.084;2023-04-09T00:26:32;10.90;79.20
42097;DHT22;27754;45.414;11.084;2023-04-09T00:28:59;10.90;78.70
42097;DHT22;27754;45.414;11.084;2023-04-09T00:31:26;10.90;79.10
42097;DHT22;27754;45.414;11.084;2023-04-09T00:33:53;10.80;79.50
42097;DHT22;27754;45.414;11.084;2023-04-09T00:36:20;10.80;80.30
42097;DHT22;27754;45.414;11.084;2023-04-09T00:38:48;10.70;80.60
42097;DHT22;27754;45.414;11.084;2023-04-09T00:41:16;10.70;81.40
42097;DHT22;27754;45.414;11.084;2023-04-09T00:43:43;10.70;81.90
42097;DHT22;27754;45.414;11.084;2023-04-09T00:46:10;10.70;82.10
42097;DHT22;27754;45.414;11.084;2023-04-09T00:48:38;10.60;82.40
42097;DHT22;27754;45.414;11.084;2023-04-09T00:51:05;10.60;82.50
42097;DHT22;27754;45.414;11.084;2023-04-09T00:53:33;10.60;82.50
42097;DHT22;27754;45.414;11.084;2023-04-09T00:56:01;10.60;82.60
42097;DHT22;27754;45.414;11.084;2023-04-09T00:58:28;10.60;82.40
42097;DHT22;27754;45.414;11.084;2023-04-09T01:00:55;10.60;82.30
42097;DHT22;27754;45.414;11.084;2023-04-09T01:03:22;10.50;82.80
42097;DHT22;27754;45.414;11.084;2023-04-09T01:06:04;10.40;82.80
42097;DHT22;27754;45.414;11.084;2023-04-09T01:11:37;10.50;82.00
42097;DHT22;27754;45.414;11.084;2023-04-09T01:14:42;10.50;81.80
42097;DHT22;27754;45.414;11.084;2023-04-09T01:17:23;10.50;80.10
42097;DHT22;27754;45.414;11.084;2023-04-09T01:20:00;10.60;80.70
42097;DHT22;27754;45.414;11.084;2023-04-09T01:28:53;10.70;79.90
42097;DHT22;27754;45.414;11.084;2023-04-09T01:31:25;10.70;79.00
42097;DHT22;27754;45.414;11.084;2023-04-09T01:33:54;10.70;79.00
42097;DHT22;27754;45.414;11.084;2023-04-09T01:36:23;10.70;79.70
42097;DHT22;27754;45.414;11.084;2023-04-09T01:38:50;10.60;80.00
42097;DHT22;27754;45.414;11.084;2023-04-09T01:41:20;10.60;80.40
42097;DHT22;27754;45.414;11.084;2023-04-09T01:43:49;10.40;80.30
42097;DHT22;27754;45.414;11.084;2023-04-09T01:46:20;10.40;80.30
42097;DHT22;27754;45.414;11.084;2023-04-09T01:48:48;10.40;80.60
42097;DHT22;27754;45.414;11.084;2023-04-09T01:51:16;10.50;79.50
42097;DHT22;27754;45.414;11.084;2023-04-09T01:53:43;10.40;79.60
42097;DHT22;27754;45.414;11.084;2023-04-09T01:56:10;10.40;79.20
42097;DHT22;27754;45.414;11.084;2023-04-09T01:58:37;10.40;79.00
42097;DHT22;27754;45.414;11.084;2023-04-09T02:04:25;10.40;78.50
42097;DHT22;27754;45.414;11.084;2023-04-09T02:07:02;10.40;78.10
42097;DHT22;27754;45.414;11.084;2023-04-09T02:09:31;10.40;78.20
42097;DHT22;27754;45.414;11.084;2023-04-09T02:12:02;10.40;78.30
42097;DHT22;27754;45.414;11.084;2023-04-09T02:14:31;10.40;79.80
42097;DHT22;27754;45.414;11.084;2023-04-09T02:16:59;10.40;80.20
42097;DHT22;27754;45.414;11.084;2023-04-09T02:19:44;10.40;80.60
42097;DHT22;27754;45.414;11.084;2023-04-09T02:22:14;10.40;80.80
42097;DHT22;27754;45.414;11.084;2023-04-09T02:24:42;10.30;80.80
42097;DHT22;27754;45.414;11.084;2023-04-09T02:27:09;10.20;80.80
42097;DHT22;27754;45.414;11.084;2023-04-09T02:29:38;10.10;80.90
42097;DHT22;27754;45.414;11.084;2023-04-09T02:32:06;10.10;80.70
42097;DHT22;27754;45.414;11.084;2023-04-09T02:34:33;10.10;80.70
42097;DHT22;27754;45.414;11.084;2023-04-09T02:37:00;10.00;80.50
42097;DHT22;27754;45.414;11.084;2023-04-09T02:39:27;10.00;80.80
42097;DHT22;27754;45.414;11.084;2023-04-09T02:41:54;9.90;81.20
42097;DHT22;27754;45.414;11.084;2023-04-09T02:44:21;9.90;81.50
42097;DHT22;27754;45.414;11.084;2023-04-09T02:46:49;10.00;81.50
42097;DHT22;27754;45.414;11.084;2023-04-09T02:49:18;10.00;81.60
42097;DHT22;27754;45.414;11.084;2023-04-09T02:51:45;9.90;81.90
42097;DHT22;27754;45.414;11.084;2023-04-09T02:54:12;9.90;81.80
42097;DHT22;27754;45.414;11.084;2023-04-09T02:56:38;9.90;81.20
42097;DHT22;27754;45.414;11.084;2023-04-09T02:59:05;9.90;80.90
42097;DHT22;27754;45.414;11.084;2023-04-09T03:01:33;10.00;80.30
42097;DHT22;27754;45.414;11.084;2023-04-09T03:04:00;10.00;79.70
42097;DHT22;27754;45.414;11.084;2023-04-09T03:06:28;10.10;79.00
42097;DHT22;27754;45.414;11.084;2023-04-09T03:08:55;10.10;78.90
42097;DHT22;27754;45.414;11.084;2023-04-09T03:11:22;10.10;78.00
42097;DHT22;27754;45.414;11.084;2023-04-09T03:13:49;10.10;78.60
42097;DHT22;27754;45.414;11.084;2023-04-09T03:16:16;10.10;78.90
42097;DHT22;27754;45.414;11.084;2023-04-09T03:18:42;10.20;79.00
42097;DHT22;27754;45.414;11.084;2023-04-09T03:21:09;10.20;79.30
42097;DHT22;27754;45.414;11.084;2023-04-09T03:23:45;10.20;79.40
42097;DHT22;27754;45.414;11.084;2023-04-09T03:26:12;10.20;79.40
42097;DHT22;27754;45.414;11.084;2023-04-09T03:28:44;10.10;79.40
42097;DHT22;27754;45.414;11.084;2023-04-09T03:31:11;10.10;79.30
42097;DHT22;27754;45.414;11.084;2023-04-09T03:33:41;10.10;79.10
42097;DHT22;27754;45.414;11.084;2023-04-09T03:36:09;10.20;78.80
42097;DHT22;27754;45.414;11.084;2023-04-09T03:39:05;10.10;78.30
42097;DHT22;27754;45.414;11.084;2023-04-09T03:41:38;10.20;78.00
42097;DHT22;27754;45.414;11.084;2023-04-09T03:44:09;10.20;78.30
42097;DHT22;27754;45.414;11.084;2023-04-09T03:47:06;10.20;78.80
42097;DHT22;27754;45.414;11.084;2023-04-09T03:49:35;10.10;79.50
42097;DHT22;27754;45.414;11.084;2023-04-09T03:52:13;10.20;79.70
42097;DHT22;27754;45.414;11.084;2023-04-09T03:54:43;10.20;80.00
42097;DHT22;27754;45.414;11.084;2023-04-09T03:57:15;10.20;80.20
42097;DHT22;27754;45.414;11.084;2023-04-09T03:59:45;10.20;80.00
42097;DHT22;27754;45.414;11.084;2023-04-09T04:02:16;10.20;80.20
42097;DHT22;27754;45.414;11.084;2023-04-09T04:04:47;10.10;80.20
42097;DHT22;27754;45.414;11.084;2023-04-09T04:07:15;10.10;79.90
42097;DHT22;27754;45.414;11.084;2023-04-09T04:09:50;10.10;79.70
42097;DHT22;27754;45.414;11.084;2023-04-09T04:12:17;10.20;79.30
42097;DHT22;27754;45.414;11.084;2023-04-09T04:15:04;10.20;79.30
42097;DHT22;27754;45.414;11.084;2023-04-09T04:17:39;10.30;79.40
42097;DHT22;27754;45.414;11.084;2023-04-09T04:20:14;10.20;79.60
42097;DHT22;27754;45.414;11.084;2023-04-09T04:22:52;10.30;79.30
42097;DHT22;27754;45.414;11.084;2023-04-09T04:25:21;10.30;79.30
42097;DHT22;27754;45.414;11.084;2023-04-09T04:27:48;10.30;78.60
42097;DHT22;27754;45.414;11.084;2023-04-09T04:30:18;10.40;78.00
42097;DHT22;27754;45.414;11.084;2023-04-09T04:32:56;10.40;77.20
42097;DHT22;27754;45.414;11.084;2023-04-09T04:35:25;10.40;76.30
42097;DHT22;27754;45.414;11.084;2023-04-09T04:37:55;10.40;76.00
42097;DHT22;27754;45.414;11.084;2023-04-09T04:40:23;10.50;75.50
42097;DHT22;27754;45.414;11.084;2023-04-09T04:42:56;10.50;75.20
42097;DHT22;27754;45.414;11.084;2023-04-09T04:45:23;10.50;74.40
42097;DHT22;27754;45.414;11.084;2023-04-09T04:47:54;10.60;73.90
42097;DHT22;27754;45.414;11.084;2023-04-09T04:50:21;10.60;73.50
42097;DHT22;27754;45.414;11.084;2023-04-09T04:53:06;10.60;73.50
42097;DHT22;27754;45.414;11.084;2023-04-09T04:55:42;10.70;73.60
42097;DHT22;27754;45.414;11.084;2023-04-09T04:58:12;10.70;73.90
42097;DHT22;27754;45.414;11.084;2023-04-09T05:00:45;10.70;73.90
42097;DHT22;27754;45.414;11.084;2023-04-09T05:03:12;10.70;74.40
42097;DHT22;27754;45.414;11.084;2023-04-09T05:05:52;10.70;73.70
42097;DHT22;27754;45.414;11.084;2023-04-09T05:08:19;10.80;73.60
42097;DHT22;27754;45.414;11.084;2023-04-09T05:10:50;10.80;73.80
42097;DHT22;27754;45.414;11.084;2023-04-09T05:13:18;10.70;73.90
42097;DHT22;27754;45.414;11.084;2023-04-09T05:15:45;10.70;73.70
42097;DHT22;27754;45.414;11.084;2023-04-09T05:18:12;10.80;73.70
42097;DHT22;27754;45.414;11.084;2023-04-09T05:20:39;10.80;73.40
42097;DHT22;27754;45.414;11.084;2023-04-09T05:23:07;10.80;73.50
42097;DHT22;27754;45.414;11.084;2023-04-09T05:25:41;10.80;73.80
42097;DHT22;27754;45.414;11.084;2023-04-09T05:28:17;10.90;73.70
42097;DHT22;27754;45.414;11.084;2023-04-09T05:30:47;10.90;73.90
42097;DHT22;27754;45.414;11.084;2023-04-09T05:33:16;10.90;72.60
42097;DHT22;27754;45.414;11.084;2023-04-09T05:35:44;10.90;72.80
42097;DHT22;27754;45.414;11.084;2023-04-09T05:38:11;11.00;72.80
42097;DHT22;27754;45.414;11.084;2023-04-09T05:40:41;11.00;73.00
42097;DHT22;27754;45.414;11.084;2023-04-09T05:43:12;11.10;72.60
42097;DHT22;27754;45.414;11.084;2023-04-09T05:45:42;11.20;72.70
42097;DHT22;27754;45.414;11.084;2023-04-09T05:48:09;11.20;72.40
42097;DHT22;27754;45.414;11.084;2023-04-09T05:50:37;11.10;72.60
42097;DHT22;27754;45.414;11.084;2023-04-09T05:53:22;11.20;72.60
42097;DHT22;27754;45.414;11.084;2023-04-09T05:55:50;11.20;72.60
42097;DHT22;27754;45.414;11.084;2023-04-09T05:58:22;11.30;71.30
42097;DHT22;27754;45.414;11.084;2023-04-09T06:00:50;11.30;71.20
42097;DHT22;27754;45.414;11.084;2023-04-09T06:03:18;11.40;71.40
42097;DHT22;27754;45.414;11.084;2023-04-09T06:05:46;11.40;71.50
42097;DHT22;27754;45.414;11.084;2023-04-09T06:08:14;11.40;72.80
42097;DHT22;27754;45.414;11.084;2023-04-09T06:10:41;11.40;72.40
42097;DHT22;27754;45.414;11.084;2023-04-09T06:13:09;11.40;72.50
42097;DHT22;27754;45.414;11.084;2023-04-09T06:15:37;11.50;73.30
42097;DHT22;27754;45.414;11.084;2023-04-09T06:18:04;11.50;72.60
42097;DHT22;27754;45.414;11.084;2023-04-09T06:20:31;11.50;72.60
42097;DHT22;27754;45.414;11.084;2023-04-09T06:22:58;11.50;72.40
42097;DHT22;27754;45.414;11.084;2023-04-09T06:25:25;11.60;72.20
42097;DHT22;27754;45.414;11.084;2023-04-09T06:27:52;11.50;72.20
42097;DHT22;27754;45.414;11.084;2023-04-09T06:30:19;11.50;72.00
42097;DHT22;27754;45.414;11.084;2023-04-09T06:32:46;11.60;72.00
42097;DHT22;27754;45.414;11.084;2023-04-09T06:35:20;11.60;70.60
42097;DHT22;27754;45.414;11.084;2023-04-09T06:37:47;11.80;71.10
42097;DHT22;27754;45.414;11.084;2023-04-09T06:40:14;11.80;70.10
42097;DHT22;27754;45.414;11.084;2023-04-09T06:42:41;12.00;69.90
42097;DHT22;27754;45.414;11.084;2023-04-09T06:45:16;12.10;68.80
42097;DHT22;27754;45.414;11.084;2023-04-09T06:47:43;12.40;68.00
42097;DHT22;27754;45.414;11.084;2023-04-09T06:50:10;12.80;66.70
42097;DHT22;27754;45.414;11.084;2023-04-09T06:52:37;12.70;65.50
42097;DHT22;27754;45.414;11.084;2023-04-09T06:55:04;12.80;65.70
42097;DHT22;27754;45.414;11.084;2023-04-09T06:57:31;13.00;64.80
42097;DHT22;27754;45.414;11.084;2023-04-09T06:59:58;12.80;64.20
42097;DHT22;27754;45.414;11.084;2023-04-09T07:02:25;12.70;64.00
42097;DHT22;27754;45.414;11.084;2023-04-09T07:04:53;12.60;65.10
42097;DHT22;27754;45.414;11.084;2023-04-09T07:07:20;12.80;65.60
42097;DHT22;27754;45.414;11.084;2023-04-09T07:09:52;12.70;64.60
42097;DHT22;27754;45.414;11.084;2023-04-09T07:12:26;12.40;64.30
42097;DHT22;27754;45.414;11.084;2023-04-09T07:15:00;12.30;64.40
42097;DHT22;27754;45.414;11.084;2023-04-09T07:17:28;12.20;65.00
42097;DHT22;27754;45.414;11.084;2023-04-09T07:19:55;12.10;65.90
42097;DHT22;27754;45.414;11.084;2023-04-09T07:22:24;12.20;66.00
42097;DHT22;27754;45.414;11.084;2023-04-09T07:24:52;12.30;65.70
42097;DHT22;27754;45.414;11.084;2023-04-09T07:27:29;12.30;66.00
42097;DHT22;27754;45.414;11.084;2023-04-09T07:29:57;12.40;66.10
42097;DHT22;27754;45.414;11.084;2023-04-09T07:32:25;12.40;65.90
42097;DHT22;27754;45.414;11.084;2023-04-09T07:34:54;12.40;64.80
42097;DHT22;27754;45.414;11.084;2023-04-09T07:37:21;12.40;65.20
42097;DHT22;27754;45.414;11.084;2023-04-09T07:39:49;12.40;65.10
42097;DHT22;27754;45.414;11.084;2023-04-09T07:42:17;12.70;64.30
42097;DHT22;27754;45.414;11.084;2023-04-09T07:44:44;12.60;63.70
42097;DHT22;27754;45.414;11.084;2023-04-09T07:47:12;12.70;64.30
42097;DHT22;27754;45.414;11.084;2023-04-09T07:49:39;12.80;63.60
42097;DHT22;27754;45.414;11.084;2023-04-09T07:52:06;12.60;62.70
42097;DHT22;27754;45.414;11.084;2023-04-09T07:54:34;12.60;62.30
42097;DHT22;27754;45.414;11.084;2023-04-09T07:57:01;12.60;62.20
42097;DHT22;27754;45.414;11.084;2023-04-09T07:59:28;12.80;62.80
42097;DHT22;27754;45.414;11.084;2023-04-09T08:01:57;12.80;62.90
42097;DHT22;27754;45.414;11.084;2023-04-09T08:04:25;12.90;62.10
42097;DHT22;27754;45.414;11.084;2023-04-09T08:06:53;12.90;62.10
42097;DHT22;27754;45.414;11.084;2023-04-09T08:09:20;13.20;62.40
42097;DHT22;27754;45.414;11.084;2023-04-09T08:11:48;13.40;61.50
42097;DHT22;27754;45.414;11.084;2023-04-09T08:14:16;13.10;60.60
42097;DHT22;27754;45.414;11.084;2023-04-09T08:16:45;13.30;61.00
42097;DHT22;27754;45.414;11.084;2023-04-09T08:19:14;13.20;60.90
42097;DHT22;27754;45.414;11.084;2023-04-09T08:21:41;13.10;60.50
42097;DHT22;27754;45.414;11.084;2023-04-09T08:24:10;13.20;61.20
42097;DHT22;27754;45.414;11.084;2023-04-09T08:26:38;13.20;60.50
42097;DHT22;27754;45.414;11.084;2023-04-09T08:29:07;13.20;60.20
42097;DHT22;27754;45.414;11.084;2023-04-09T08:31:34;13.20;60.50
42097;DHT22;27754;45.414;11.084;2023-04-09T08:34:05;13.30;59.80
42097;DHT22;27754;45.414;11.084;2023-04-09T08:36:32;13.40;60.20
42097;DHT22;27754;45.414;11.084;2023-04-09T08:39:01;13.70;59.50
42097;DHT22;27754;45.414;11.084;2023-04-09T08:41:29;13.60;59.30
42097;DHT22;27754;45.414;11.084;2023-04-09T08:43:57;13.90;59.30
42097;DHT22;27754;45.414;11.084;2023-04-09T08:46:26;14.10;58.80
42097;DHT22;27754;45.414;11.084;2023-04-09T08:48:53;14.50;58.60
42097;DHT22;27754;45.414;11.084;2023-04-09T08:51:23;14.70;58.00
42097;DHT22;27754;45.414;11.084;2023-04-09T08:54:00;14.90;58.00
42097;DHT22;27754;45.414;11.084;2023-04-09T08:56:29;14.70;58.40
42097;DHT22;27754;45.414;11.084;2023-04-09T08:58:56;14.60;58.80
42097;DHT22;27754;45.414;11.084;2023-04-09T09:01:29;14.60;58.80
42097;DHT22;27754;45.414;11.084;2023-04-09T09:03:58;14.50;58.60
42097;DHT22;27754;45.414;11.084;2023-04-09T09:06:30;14.40;58.80
42097;DHT22;27754;45.414;11.084;2023-04-09T09:09:09;14.80;58.50
42097;DHT22;27754;45.414;11.084;2023-04-09T09:11:40;14.70;58.30
42097;DHT22;27754;45.414;11.084;2023-04-09T09:14:10;14.80;58.30
42097;DHT22;27754;45.414;11.084;2023-04-09T09:16:39;15.10;58.70
42097;DHT22;27754;45.414;11.084;2023-04-09T09:19:28;15.20;56.80
42097;DHT22;27754;45.414;11.084;2023-04-09T09:22:04;15.40;56.90
42097;DHT22;27754;45.414;11.084;2023-04-09T09:24:32;15.60;56.40
42097;DHT22;27754;45.414;11.084;2023-04-09T09:27:00;16.00;55.30
42097;DHT22;27754;45.414;11.084;2023-04-09T09:29:28;15.80;55.40
42097;DHT22;27754;45.414;11.084;2023-04-09T09:31:55;15.40;56.20
42097;DHT22;27754;45.414;11.084;2023-04-09T09:34:23;15.40;56.00
42097;DHT22;27754;45.414;11.084;2023-04-09T09:36:50;15.50;55.00
42097;DHT22;27754;45.414;11.084;2023-04-09T09:39:17;15.70;55.70
42097;DHT22;27754;45.414;11.084;2023-04-09T09:41:45;15.30;54.90
42097;DHT22;27754;45.414;11.084;2023-04-09T09:44:29;15.40;56.60
42097;DHT22;27754;45.414;11.084;2023-04-09T09:46:58;15.60;55.40
42097;DHT22;27754;45.414;11.084;2023-04-09T09:49:25;15.90;55.10
42097;DHT22;27754;45.414;11.084;2023-04-09T09:51:52;15.90;55.20
42097;DHT22;27754;45.414;11.084;2023-04-09T09:54:24;16.40;55.80
42097;DHT22;27754;45.414;11.084;2023-04-09T09:56:54;16.40;54.50
42097;DHT22;27754;45.414;11.084;2023-04-09T09:59:29;16.40;54.40
42097;DHT22;27754;45.414;11.084;2023-04-09T10:02:03;16.40;53.70
42097;DHT22;27754;45.414;11.084;2023-04-09T10:04:34;16.30;54.40
42097;DHT22;27754;45.414;11.084;2023-04-09T10:07:04;16.30;55.20
42097;DHT22;27754;45.414;11.084;2023-04-09T10:09:44;16.30;53.80
42097;DHT22;27754;45.414;11.084;2023-04-09T10:12:12;16.30;54.10
42097;DHT22;27754;45.414;11.084;2023-04-09T10:14:40;16.30;54.50
42097;DHT22;27754;45.414;11.084;2023-04-09T10:17:08;16.40;53.60
42097;DHT22;27754;45.414;11.084;2023-04-09T10:19:41;16.40;53.80
42097;DHT22;27754;45.414;11.084;2023-04-09T10:22:11;16.40;54.30
42097;DHT22;27754;45.414;11.084;2023-04-09T10:24:39;16.50;53.90
42097;DHT22;27754;45.414;11.084;2023-04-09T10:27:11;16.60;53.40
42097;DHT22;27754;45.414;11.084;2023-04-09T10:29:46;16.70;53.50
42097;DHT22;27754;45.414;11.084;2023-04-09T10:32:18;16.40;53.10
42097;DHT22;27754;45.414;11.084;2023-04-09T10:34:49;16.30;53.50
42097;DHT22;27754;45.414;11.084;2023-04-09T10:37:23;16.40;53.80
42097;DHT22;27754;45.414;11.084;2023-04-09T10:39:52;16.40;53.10
42097;DHT22;27754;45.414;11.084;2023-04-09T10:42:25;16.60;53.30
42097;DHT22;27754;45.414;11.084;2023-04-09T10:45:11;16.90;51.80
42097;DHT22;27754;45.414;11.084;2023-04-09T10:47:41;16.80;53.60
42097;DHT22;27754;45.414;11.084;2023-04-09T10:50:24;17.00;52.10
42097;DHT22;27754;45.414;11.084;2023-04-09T10:52:55;16.80;51.50
42097;DHT22;27754;45.414;11.084;2023-04-09T10:55:38;16.50;52.20
42097;DHT22;27754;45.414;11.084;2023-04-09T10:58:10;16.40;54.40
42097;DHT22;27754;45.414;11.084;2023-04-09T11:00:44;16.40;53.40
42097;DHT22;27754;45.414;11.084;2023-04-09T11:03:25;16.70;52.60
42097;DHT22;27754;45.414;11.084;2023-04-09T11:06:05;16.70;51.20
42097;DHT22;27754;45.414;11.084;2023-04-09T11:08:37;16.70;52.30
42097;DHT22;27754;45.414;11.084;2023-04-09T11:11:05;16.40;53.00
42097;DHT22;27754;45.414;11.084;2023-04-09T11:13:32;16.60;53.40
42097;DHT22;27754;45.414;11.084;2023-04-09T11:16:00;16.50;53.90
42097;DHT22;27754;45.414;11.084;2023-04-09T11:18:29;16.70;53.30
42097;DHT22;27754;45.414;11.084;2023-04-09T11:20:58;16.90;53.00
42097;DHT22;27754;45.414;11.084;2023-04-09T11:23:26;17.00;52.50
42097;DHT22;27754;45.414;11.084;2023-04-09T11:25:53;17.10;51.60
42097;DHT22;27754;45.414;11.084;2023-04-09T11:28:23;17.10;51.50
42097;DHT22;27754;45.414;11.084;2023-04-09T11:30:50;17.00;50.90
42097;DHT22;27754;45.414;11.084;2023-04-09T11:33:18;16.90;52.70
42097;DHT22;27754;45.414;11.084;2023-04-09T11:35:46;17.10;52.70
42097;DHT22;27754;45.414;11.084;2023-04-09T11:38:14;17.40;51.80
42097;DHT22;27754;45.414;11.084;2023-04-09T11:40:42;17.20;51.50
42097;DHT22;27754;45.414;11.084;2023-04-09T11:43:14;17.50;51.50
42097;DHT22;27754;45.414;11.084;2023-04-09T11:45:42;17.30;51.20
42097;DHT22;27754;45.414;11.084;2023-04-09T11:48:10;17.10;51.80
42097;DHT22;27754;45.414;11.084;2023-04-09T11:50:38;17.30;52.20
42097;DHT22;27754;45.414;11.084;2023-04-09T11:53:16;17.20;51.50
42097;DHT22;27754;45.414;11.084;2023-04-09T11:55:46;17.00;51.70
42097;DHT22;27754;45.414;11.084;2023-04-09T11:58:13;17.00;51.70
42097;DHT22;27754;45.414;11.084;2023-04-09T12:00:41;16.90;51.20
42097;DHT22;27754;45.414;11.084;2023-04-09T12:03:09;16.80;50.90
42097;DHT22;27754;45.414;11.084;2023-04-09T12:05:36;16.80;52.00
42097;DHT22;27754;45.414;11.084;2023-04-09T12:08:07;16.60;52.10
42097;DHT22;27754;45.414;11.084;2023-04-09T12:10:36;16.70;51.50
42097;DHT22;27754;45.414;11.084;2023-04-09T12:13:08;16.70;51.00
42097;DHT22;27754;45.414;11.084;2023-04-09T12:15:40;16.60;51.10
42097;DHT22;27754;45.414;11.084;2023-04-09T12:18:10;16.80;52.20
42097;DHT22;27754;45.414;11.084;2023-04-09T12:20:46;17.00;51.10
42097;DHT22;27754;45.414;11.084;2023-04-09T12:23:14;17.10;51.90
42097;DHT22;27754;45.414;11.084;2023-04-09T12:25:42;17.30;52.10
42097;DHT22;27754;45.414;11.084;2023-04-09T12:28:14;17.50;51.20
42097;DHT22;27754;45.414;11.084;2023-04-09T12:30:42;17.50;51.60
42097;DHT22;27754;45.414;11.084;2023-04-09T12:33:09;17.50;51.70
42097;DHT22;27754;45.414;11.084;2023-04-09T12:35:37;17.60;51.40
42097;DHT22;27754;45.414;11.084;2023-04-09T12:38:05;17.50;51.00
42097;DHT22;27754;45.414;11.084;2023-04-09T12:40:32;17.70;50.70
42097;DHT22;27754;45.414;11.084;2023-04-09T12:42:59;17.90;51.00
42097;DHT22;27754;45.414;11.084;2023-04-09T12:45:28;17.80;49.90
42097;DHT22;27754;45.414;11.084;2023-04-09T12:47:54;17.80;50.20
42097;DHT22;27754;45.414;11.084;2023-04-09T12:50:21;17.80;50.60
42097;DHT22;27754;45.414;11.084;2023-04-09T12:52:48;18.00;50.30
42097;DHT22;27754;45.414;11.084;2023-04-09T12:55:16;18.20;49.90
42097;DHT22;27754;45.414;11.084;2023-04-09T12:57:44;18.40;50.00
42097;DHT22;27754;45.414;11.084;2023-04-09T13:00:13;17.90;49.80
42097;DHT22;27754;45.414;11.084;2023-04-09T13:02:40;17.30;50.90
42097;DHT22;27754;45.414;11.084;2023-04-09T13:05:08;17.30;51.70
42097;DHT22;27754;45.414;11.084;2023-04-09T13:07:35;17.40;51.10
42097;DHT22;27754;45.414;11.084;2023-04-09T13:10:02;17.60;51.20
42097;DHT22;27754;45.414;11.084;2023-04-09T13:12:29;18.20;51.30
42097;DHT22;27754;45.414;11.084;2023-04-09T13:14:56;18.30;49.90
42097;DHT22;27754;45.414;11.084;2023-04-09T13:17:25;18.40;49.60
42097;DHT22;27754;45.414;11.084;2023-04-09T13:19:52;18.20;49.50
42097;DHT22;27754;45.414;11.084;2023-04-09T13:22:19;17.90;49.50
42097;DHT22;27754;45.414;11.084;2023-04-09T13:24:46;17.40;50.40
42097;DHT22;27754;45.414;11.084;2023-04-09T13:27:13;17.60;50.30
42097;DHT22;27754;45.414;11.084;2023-04-09T13:29:40;17.40;50.80
42097;DHT22;27754;45.414;11.084;2023-04-09T13:32:07;17.40;50.60
42097;DHT22;27754;45.414;11.084;2023-04-09T13:34:37;17.40;51.00
42097;DHT22;27754;45.414;11.084;2023-04-09T13:37:05;17.30;50.60
42097;DHT22;27754;45.414;11.084;2023-04-09T13:39:32;17.30;50.20
42097;DHT22;27754;45.414;11.084;2023-04-09T13:42:00;17.00;50.70
42097;DHT22;27754;45.414;11.084;2023-04-09T13:44:38;16.70;51.10
42097;DHT22;27754;45.414;11.084;2023-04-09T13:47:08;16.80;51.60
42097;DHT22;27754;45.414;11.084;2023-04-09T13:49:37;17.10;52.70
42097;DHT22;27754;45.414;11.084;2023-04-09T13:52:04;16.90;49.80
42097;DHT22;27754;45.414;11.084;2023-04-09T13:54:32;17.20;51.00
42097;DHT22;27754;45.414;11.084;2023-04-09T13:56:59;17.30;51.50
42097;DHT22;27754;45.414;11.084;2023-04-09T13:59:26;17.40;50.30
42097;DHT22;27754;45.414;11.084;2023-04-09T14:01:53;17.30;50.30
42097;DHT22;27754;45.414;11.084;2023-04-09T14:04:20;17.30;50.30
42097;DHT22;27754;45.414;11.084;2023-04-09T14:06:47;17.50;49.60
42097;DHT22;27754;45.414;11.084;2023-04-09T14:09:14;17.50;50.30
42097;DHT22;27754;45.414;11.084;2023-04-09T14:11:41;17.60;49.60
42097;DHT22;27754;45.414;11.084;2023-04-09T14:14:08;17.90;49.70
42097;DHT22;27754;45.414;11.084;2023-04-09T14:16:36;18.00;49.10
42097;DHT22;27754;45.414;11.084;2023-04-09T14:19:03;18.30;49.10
42097;DHT22;27754;45.414;11.084;2023-04-09T14:21:30;18.50;49.20
42097;DHT22;27754;45.414;11.084;2023-04-09T14:23:57;18.40;47.70
42097;DHT22;27754;45.414;11.084;2023-04-09T14:26:24;18.30;47.70
42097;DHT22;27754;45.414;11.084;2023-04-09T14:28:52;17.60;48.00
42097;DHT22;27754;45.414;11.084;2023-04-09T14:31:19;17.60;49.30
42097;DHT22;27754;45.414;11.084;2023-04-09T14:33:47;17.40;49.80
42097;DHT22;27754;45.414;11.084;2023-04-09T14:36:14;17.40;49.50
42097;DHT22;27754;45.414;11.084;2023-04-09T14:38:41;17.10;49.60
42097;DHT22;27754;45.414;11.084;2023-04-09T14:41:08;17.00;49.60
42097;DHT22;27754;45.414;11.084;2023-04-09T14:43:35;16.80;49.20
42097;DHT22;27754;45.414;11.084;2023-04-09T14:46:02;16.60;50.70
42097;DHT22;27754;45.414;11.084;2023-04-09T14:48:31;16.40;51.10
42097;DHT22;27754;45.414;11.084;2023-04-09T14:50:58;16.50;51.40
42097;DHT22;27754;45.414;11.084;2023-04-09T14:53:25;16.40;52.50
42097;DHT22;27754;45.414;11.084;2023-04-09T14:55:52;16.30;52.30
42097;DHT22;27754;45.414;11.084;2023-04-09T14:58:19;16.20;52.30
42097;DHT22;27754;45.414;11.084;2023-04-09T15:00:47;16.00;52.80
42097;DHT22;27754;45.414;11.084;2023-04-09T15:03:14;15.90;54.10
42097;DHT22;27754;45.414;11.084;2023-04-09T15:05:41;15.80;54.20
42097;DHT22;27754;45.414;11.084;2023-04-09T15:08:08;15.70;54.70
42097;DHT22;27754;45.414;11.084;2023-04-09T15:10:36;15.60;55.10
42097;DHT22;27754;45.414;11.084;2023-04-09T15:13:03;15.40;53.60
42097;DHT22;27754;45.414;11.084;2023-04-09T15:15:30;15.40;54.40
42097;DHT22;27754;45.414;11.084;2023-04-09T15:17:57;15.40;56.30
42097;DHT22;27754;45.414;11.084;2023-04-09T15:20:25;15.30;55.50
42097;DHT22;27754;45.414;11.084;2023-04-09T15:22:52;15.30;54.70
42097;DHT22;27754;45.414;11.084;2023-04-09T15:25:19;15.30;54.60
42097;DHT22;27754;45.414;11.084;2023-04-09T15:27:46;15.30;53.60
42097;DHT22;27754;45.414;11.084;2023-04-09T15:30:13;15.30;54.20
42097;DHT22;27754;45.414;11.084;2023-04-09T15:32:40;15.30;57.10
42097;DHT22;27754;45.414;11.084;2023-04-09T15:35:08;15.30;56.40
42097;DHT22;27754;45.414;11.084;2023-04-09T15:37:34;15.20;56.00
42097;DHT22;27754;45.414;11.084;2023-04-09T15:40:02;15.20;55.80
42097;DHT22;27754;45.414;11.084;2023-04-09T15:42:29;15.10;57.60
42097;DHT22;27754;45.414;11.084;2023-04-09T15:44:57;15.10;56.50